createdAt,value
2022-09-17T00:00:52.476Z,45.20
2022-09-17T00:03:19.226Z,44.96
2022-09-17T00:05:45.765Z,45.09
2022-09-17T00:08:14.981Z,45.14
2022-09-17T00:10:44.749Z,45.17
2022-09-17T00:13:12.231Z,45.22
2022-09-17T00:15:43.726Z,45.10
2022-09-17T00:18:11.200Z,45.32
2022-09-17T00:20:47.411Z,45.19
2022-09-17T00:23:14.923Z,45.21
2022-09-17T00:25:44.148Z,45.10
2022-09-17T00:28:12.049Z,45.36
2022-09-17T00:30:43.838Z,45.18
2022-09-17T00:33:16.903Z,45.08
2022-09-17T00:35:44.422Z,45.24
2022-09-17T00:38:11.496Z,45.10
2022-09-17T00:40:38.824Z,45.18
2022-09-17T00:43:11.755Z,45.17
2022-09-17T00:45:40.048Z,45.12
2022-09-17T00:48:07.022Z,45.20
2022-09-17T00:50:41.836Z,45.15
2022-09-17T00:53:13.840Z,45.20
2022-09-17T00:55:45.867Z,45.26
2022-09-17T00:58:14.999Z,45.16
2022-09-17T01:00:41.622Z,45.23
2022-09-17T01:03:08.834Z,45.19
2022-09-17T01:06:01.452Z,45.10
2022-09-17T01:09:06.400Z,45.30
2022-09-17T01:11:48.099Z,45.21
2022-09-17T01:14:35.629Z,45.14
2022-09-17T01:17:27.579Z,45.24
2022-09-17T01:20:19.121Z,45.09
2022-09-17T01:23:23.308Z,45.21
2022-09-17T01:25:52.588Z,45.10
2022-09-17T01:28:18.999Z,45.15
2022-09-17T01:31:11.677Z,45.13
2022-09-17T01:33:46.577Z,45.21
2022-09-17T01:36:52.565Z,45.23
2022-09-17T01:39:32.395Z,45.15
2022-09-17T01:42:10.804Z,45.28
2022-09-17T01:44:55.709Z,45.16
2022-09-17T01:47:35.639Z,45.10
2022-09-17T01:50:10.561Z,45.06
2022-09-17T01:52:40.456Z,45.26
2022-09-17T01:55:13.115Z,45.14
2022-09-17T01:57:47.477Z,45.22
2022-09-17T02:00:17.185Z,45.13
2022-09-17T02:03:06.402Z,45.17
2022-09-17T02:06:03.132Z,45.24
2022-09-17T02:08:42.309Z,45.21
2022-09-17T02:11:12.345Z,45.15
2022-09-17T02:13:56.051Z,44.98
2022-09-17T02:16:26.873Z,45.08
2022-09-17T02:19:09.158Z,45.24
2022-09-17T02:21:41.457Z,45.04
2022-09-17T02:24:18.140Z,45.08
2022-09-17T02:27:06.811Z,44.96
2022-09-17T02:29:36.845Z,45.07
2022-09-17T02:32:04.466Z,45.15
2022-09-17T02:34:31.499Z,45.10
2022-09-17T02:36:59.512Z,45.00
2022-09-17T02:39:26.858Z,45.15
2022-09-17T02:42:08.353Z,45.06
2022-09-17T02:44:40.616Z,45.02
2022-09-17T02:47:22.437Z,44.94
2022-09-17T02:50:18.024Z,44.99
2022-09-17T02:52:50.731Z,45.15
2022-09-17T02:55:28.180Z,44.99
2022-09-17T02:58:10.257Z,45.21
2022-09-17T03:00:39.468Z,45.16
2022-09-17T03:03:21.976Z,45.09
2022-09-17T03:05:49.869Z,45.07
2022-09-17T03:08:20.127Z,45.01
2022-09-17T03:10:49.164Z,45.09
2022-09-17T03:13:16.309Z,45.08
2022-09-17T03:15:43.212Z,45.08
2022-09-17T03:18:09.900Z,45.10
2022-09-17T03:20:36.761Z,45.04
2022-09-17T03:23:03.273Z,45.01
2022-09-17T03:25:29.879Z,45.15
2022-09-17T03:27:56.688Z,45.16
2022-09-17T03:30:23.276Z,45.12
2022-09-17T03:32:49.812Z,44.96
2022-09-17T03:35:16.380Z,45.33
2022-09-17T03:37:43.119Z,45.03
2022-09-17T03:40:10.415Z,45.11
2022-09-17T03:42:37.020Z,45.05
2022-09-17T03:45:03.905Z,45.13
2022-09-17T03:47:31.003Z,45.03
2022-09-17T03:49:57.745Z,45.06
2022-09-17T03:52:24.309Z,45.13
2022-09-17T03:54:50.989Z,45.16
2022-09-17T03:57:17.463Z,45.11
2022-09-17T03:59:44.001Z,45.06
2022-09-17T04:02:10.630Z,45.14
2022-09-17T04:04:37.748Z,45.16
2022-09-17T04:07:04.796Z,45.21
2022-09-17T04:09:33.287Z,45.08
2022-09-17T04:12:02.071Z,45.16
2022-09-17T04:14:28.611Z,45.13
2022-09-17T04:16:55.225Z,45.04
2022-09-17T04:19:21.733Z,45.05
2022-09-17T04:21:48.608Z,45.08
2022-09-17T04:24:15.367Z,45.14
2022-09-17T04:26:41.952Z,45.18
2022-09-17T04:29:10.035Z,45.10
2022-09-17T04:31:36.904Z,45.19
2022-09-17T04:34:03.640Z,44.99
2022-09-17T04:36:30.195Z,45.01
2022-09-17T04:38:56.803Z,45.18
2022-09-17T04:41:23.381Z,45.03
2022-09-17T04:43:50.244Z,45.15
2022-09-17T04:46:16.942Z,45.22
2022-09-17T04:48:43.630Z,45.26
2022-09-17T04:51:10.270Z,45.01
2022-09-17T04:53:38.485Z,45.03
2022-09-17T04:56:05.454Z,45.19
2022-09-17T04:58:32.938Z,45.08
2022-09-17T05:00:59.871Z,45.25
2022-09-17T05:03:26.601Z,45.16
2022-09-17T05:05:53.200Z,45.13
2022-09-17T05:08:19.796Z,45.17
2022-09-17T05:10:46.392Z,45.12
2022-09-17T05:13:12.931Z,45.17
2022-09-17T05:15:39.479Z,45.06
2022-09-17T05:18:06.085Z,45.13
2022-09-17T05:20:32.674Z,45.03
2022-09-17T05:22:59.289Z,45.23
2022-09-17T05:25:26.115Z,45.10
2022-09-17T05:27:53.944Z,44.95
2022-09-17T05:30:21.096Z,45.37
2022-09-17T05:32:47.929Z,45.03
2022-09-17T05:35:14.539Z,45.04
2022-09-17T05:37:41.277Z,45.02
2022-09-17T05:40:09.349Z,45.21
2022-09-17T05:42:36.323Z,45.15
2022-09-17T05:45:03.899Z,45.17
2022-09-17T05:47:30.460Z,45.18
2022-09-17T05:49:57.020Z,45.07
2022-09-17T05:52:28.099Z,45.23
2022-09-17T05:54:55.591Z,44.99
2022-09-17T05:57:22.325Z,45.17
2022-09-17T05:59:49.356Z,45.06
2022-09-17T06:02:15.956Z,44.94
2022-09-17T06:04:42.579Z,44.91
2022-09-17T06:07:09.314Z,44.98
2022-09-17T06:09:37.594Z,44.96
2022-09-17T06:12:05.113Z,44.87
2022-09-17T06:14:31.755Z,44.84
2022-09-17T06:16:58.280Z,44.94
2022-09-17T06:19:24.860Z,44.77
2022-09-17T06:21:52.620Z,44.75
2022-09-17T06:24:19.181Z,44.67
2022-09-17T06:26:45.753Z,44.91
2022-09-17T06:29:15.117Z,44.83
2022-09-17T06:31:44.645Z,44.75
2022-09-17T06:34:11.847Z,44.58
2022-09-17T06:36:38.443Z,44.78
2022-09-17T06:39:05.060Z,44.68
2022-09-17T06:41:31.652Z,44.68
2022-09-17T06:43:58.689Z,44.51
2022-09-17T06:46:25.752Z,44.82
2022-09-17T06:48:52.425Z,44.68
2022-09-17T06:51:19.094Z,44.81
2022-09-17T06:53:45.665Z,44.83
2022-09-17T06:56:12.233Z,44.66
2022-09-17T06:58:39.647Z,44.56
2022-09-17T07:01:06.500Z,44.72
2022-09-17T07:03:33.795Z,44.65
2022-09-17T07:06:00.526Z,44.65
2022-09-17T07:08:27.376Z,44.71
2022-09-17T07:10:58.424Z,44.68
2022-09-17T07:13:25.546Z,44.73
2022-09-17T07:15:57.898Z,44.68
2022-09-17T07:18:25.285Z,44.62
2022-09-17T07:21:02.880Z,44.67
2022-09-17T07:23:35.351Z,44.49
2022-09-17T07:26:05.108Z,44.50
2022-09-17T07:28:32.877Z,44.61
2022-09-17T07:31:03.803Z,44.39
2022-09-17T07:33:30.548Z,44.47
2022-09-17T07:35:59.583Z,44.56
2022-09-17T07:38:27.392Z,44.55
2022-09-17T07:41:09.839Z,44.58
2022-09-17T07:43:36.810Z,44.62
2022-09-17T07:46:05.352Z,44.56
2022-09-17T07:48:32.736Z,44.53
2022-09-17T07:50:59.337Z,44.71
2022-09-17T07:53:27.043Z,44.81
2022-09-17T07:55:55.451Z,44.71
2022-09-17T07:58:33.829Z,44.76
2022-09-17T08:01:05.297Z,44.74
2022-09-17T08:03:31.945Z,44.91
2022-09-17T08:06:10.135Z,44.81
2022-09-17T08:08:39.427Z,44.74
2022-09-17T08:11:11.512Z,44.88
2022-09-17T08:13:38.509Z,44.73
2022-09-17T08:16:07.535Z,44.84
2022-09-17T08:18:35.675Z,44.83
2022-09-17T08:21:04.728Z,44.87
2022-09-17T08:23:34.048Z,44.76
2022-09-17T08:26:00.945Z,44.85
2022-09-17T08:28:30.052Z,44.73
2022-09-17T08:31:19.213Z,44.86
2022-09-17T08:33:47.303Z,44.77
2022-09-17T08:36:15.889Z,44.77
2022-09-17T08:38:42.544Z,44.98
2022-09-17T08:41:28.824Z,44.88
2022-09-17T08:44:07.485Z,45.17
2022-09-17T08:46:42.692Z,45.21
2022-09-17T08:49:34.174Z,45.26
2022-09-17T08:52:37.684Z,44.96
2022-09-17T08:55:33.903Z,44.73
2022-09-17T08:58:05.093Z,44.69
2022-09-17T09:00:57.515Z,44.55
2022-09-17T09:03:39.347Z,44.49
2022-09-17T09:06:10.480Z,44.59
2022-09-17T09:08:51.323Z,44.23
2022-09-17T09:11:26.404Z,44.33
2022-09-17T09:14:05.456Z,44.32
2022-09-17T09:16:37.817Z,44.12
2022-09-17T09:19:28.270Z,44.02
2022-09-17T09:22:13.685Z,44.04
2022-09-17T09:25:12.684Z,43.85
2022-09-17T09:27:56.477Z,44.00
2022-09-17T09:30:24.938Z,44.08
2022-09-17T09:36:15.783Z,43.96
2022-09-17T09:38:57.764Z,44.23
2022-09-17T09:41:31.832Z,43.89
2022-09-17T09:44:04.794Z,44.09
2022-09-17T09:46:55.479Z,44.09
2022-09-17T09:49:48.331Z,44.34
2022-09-17T09:52:23.958Z,43.32
2022-09-17T09:55:26.387Z,43.18
2022-09-17T10:00:55.182Z,43.00
2022-09-17T10:03:26.361Z,42.88
2022-09-17T10:06:02.041Z,42.89
2022-09-17T10:08:33.132Z,43.03
2022-09-17T10:11:18.000Z,42.86
2022-09-17T10:13:44.603Z,42.77
2022-09-17T10:16:26.191Z,42.60
2022-09-17T10:19:07.907Z,42.88
2022-09-17T10:21:36.702Z,42.93
2022-09-17T10:24:05.253Z,43.00
2022-09-17T10:26:36.956Z,42.93
2022-09-17T10:29:06.676Z,43.01
2022-09-17T10:31:54.633Z,42.72
2022-09-17T10:34:41.177Z,43.05
2022-09-17T10:37:32.703Z,43.08
2022-09-17T10:39:59.329Z,43.52
2022-09-17T10:42:25.843Z,43.82
2022-09-17T10:44:57.274Z,43.90
2022-09-17T10:47:36.091Z,44.08
2022-09-17T10:50:08.329Z,44.29
2022-09-17T10:52:38.109Z,44.39
2022-09-17T10:55:29.553Z,44.81
2022-09-17T10:58:07.142Z,44.33
2022-09-17T11:01:11.007Z,44.04
2022-09-17T11:03:56.501Z,43.75
2022-09-17T11:06:54.580Z,43.43
2022-09-17T11:09:33.334Z,43.21
2022-09-17T11:12:30.659Z,43.05
2022-09-17T11:15:18.269Z,42.81
2022-09-17T11:18:05.840Z,42.58
2022-09-17T11:20:54.213Z,42.56
2022-09-17T11:23:54.828Z,42.77
2022-09-17T11:26:46.079Z,42.56
2022-09-17T11:29:50.971Z,42.44
2022-09-17T11:32:35.980Z,42.48
2022-09-17T11:35:17.444Z,42.54
2022-09-17T11:38:06.484Z,42.78
2022-09-17T11:40:43.484Z,42.74
2022-09-17T11:43:25.837Z,42.92
2022-09-17T11:46:25.296Z,42.77
2022-09-17T11:48:55.389Z,42.90
2022-09-17T11:51:32.761Z,43.12
2022-09-17T11:54:20.878Z,43.23
2022-09-17T11:57:27.950Z,43.06
2022-09-17T11:59:57.091Z,43.05
2022-09-17T12:02:33.121Z,43.32
2022-09-17T12:05:08.623Z,43.94
2022-09-17T12:07:54.744Z,44.26
2022-09-17T12:10:42.265Z,44.30
2022-09-17T12:13:30.743Z,44.32
2022-09-17T12:16:25.365Z,44.19
2022-09-17T12:19:05.534Z,44.06
2022-09-17T12:21:40.929Z,44.08
2022-09-17T12:24:25.339Z,44.28
2022-09-17T12:27:08.255Z,44.30
2022-09-17T12:30:07.009Z,44.08
2022-09-17T12:32:43.313Z,44.44
2022-09-17T12:36:03.660Z,44.52
2022-09-17T12:39:03.515Z,44.31
2022-09-17T12:41:39.165Z,44.35
2022-09-17T12:44:11.945Z,44.37
2022-09-17T12:46:53.866Z,44.37
2022-09-17T12:49:43.851Z,44.52
2022-09-17T12:52:25.715Z,44.42
2022-09-17T12:55:04.098Z,44.39
2022-09-17T12:58:00.893Z,44.32
2022-09-17T13:00:41.445Z,44.35
2022-09-17T13:03:16.317Z,44.36
2022-09-17T13:06:22.245Z,44.44
2022-09-17T13:09:16.591Z,44.55
2022-09-17T13:11:55.022Z,44.58
2022-09-17T13:14:25.396Z,44.73
2022-09-17T13:17:19.483Z,44.61
2022-09-17T13:19:52.880Z,44.46
2022-09-17T13:22:23.480Z,44.56
2022-09-17T13:25:09.584Z,44.44
2022-09-17T13:27:38.206Z,44.54
2022-09-17T13:30:10.956Z,44.40
2022-09-17T13:32:39.691Z,44.30
2022-09-17T13:35:15.093Z,44.37
2022-09-17T13:37:53.788Z,44.18
2022-09-17T13:40:29.433Z,44.21
2022-09-17T13:43:08.397Z,44.16
2022-09-17T13:46:01.065Z,44.31
2022-09-17T13:48:34.509Z,44.35
2022-09-17T13:51:39.129Z,44.19
2022-09-17T13:54:08.549Z,44.40
2022-09-17T13:56:46.027Z,44.53
2022-09-17T13:59:20.703Z,44.73
2022-09-17T14:01:56.351Z,44.74
2022-09-17T14:04:41.083Z,45.06
2022-09-17T14:07:26.698Z,45.02
2022-09-17T14:10:25.777Z,45.02
2022-09-17T14:12:56.080Z,44.93
2022-09-17T14:15:36.546Z,44.79
2022-09-17T14:18:28.825Z,44.96
2022-09-17T14:21:05.569Z,44.82
2022-09-17T14:23:34.175Z,44.85
2022-09-17T14:28:28.740Z,45.01
2022-09-17T14:30:55.455Z,45.01
2022-09-17T14:33:31.901Z,45.12
2022-09-17T14:36:10.670Z,45.15
2022-09-17T14:38:38.467Z,45.15
2022-09-17T14:41:24.321Z,45.22
2022-09-17T14:44:08.337Z,45.16
2022-09-17T14:47:10.462Z,45.11
2022-09-17T14:49:39.907Z,45.06
2022-09-17T14:52:28.086Z,44.84
2022-09-17T14:55:15.433Z,45.09
2022-09-17T14:57:44.132Z,44.98
2022-09-17T15:00:31.409Z,44.98
2022-09-17T15:03:00.655Z,45.01
2022-09-17T15:05:33.684Z,45.09
2022-09-17T15:08:11.270Z,45.03
2022-09-17T15:10:47.004Z,44.75
2022-09-17T15:13:53.078Z,44.88
2022-09-17T15:16:25.404Z,44.58
2022-09-17T15:18:53.137Z,44.85
2022-09-17T15:21:40.044Z,44.62
2022-09-17T15:24:27.667Z,44.79
2022-09-17T15:26:58.948Z,44.53
2022-09-17T15:29:30.027Z,44.72
2022-09-17T15:31:57.087Z,44.83
2022-09-17T15:34:23.785Z,44.91
2022-09-17T15:37:21.028Z,44.77
2022-09-17T15:39:54.592Z,44.80
2022-09-17T15:42:27.991Z,44.82
2022-09-17T15:45:22.133Z,44.79
2022-09-17T15:47:51.114Z,44.83
2022-09-17T15:50:29.676Z,44.78
2022-09-17T15:53:13.387Z,44.58
2022-09-17T15:56:05.131Z,44.68
2022-09-17T15:58:35.639Z,44.68
2022-09-17T16:01:14.659Z,44.82
2022-09-17T16:03:41.744Z,44.73
2022-09-17T16:06:20.845Z,44.74
2022-09-17T16:08:51.534Z,44.78
2022-09-17T16:11:22.907Z,44.54
2022-09-17T16:13:53.847Z,44.73
2022-09-17T16:16:22.957Z,44.68
2022-09-17T16:18:50.356Z,44.69
2022-09-17T16:21:18.552Z,44.76
2022-09-17T16:23:46.088Z,44.89
2022-09-17T16:26:17.181Z,44.90
2022-09-17T16:28:48.474Z,44.83
2022-09-17T16:31:15.433Z,44.77
2022-09-17T16:33:41.980Z,44.70
2022-09-17T16:36:08.615Z,44.78
2022-09-17T16:38:36.040Z,44.83
2022-09-17T16:41:05.148Z,44.93
2022-09-17T16:43:34.610Z,44.80
2022-09-17T16:46:03.137Z,44.74
2022-09-17T16:48:29.804Z,44.81
2022-09-17T16:50:56.401Z,44.74
2022-09-17T16:53:22.896Z,44.88
2022-09-17T16:55:49.460Z,44.69
2022-09-17T16:58:16.188Z,44.81
2022-09-17T17:00:43.318Z,44.84
2022-09-17T17:03:13.263Z,44.86
2022-09-17T17:05:40.276Z,44.79
2022-09-17T17:08:08.764Z,44.81
2022-09-17T17:10:37.859Z,44.91
2022-09-17T17:13:05.148Z,44.89
2022-09-17T17:15:34.636Z,44.96
2022-09-17T17:18:01.130Z,44.95
2022-09-17T17:20:27.873Z,44.81
2022-09-17T17:22:55.261Z,44.89
2022-09-17T17:25:23.647Z,45.10
2022-09-17T17:27:50.567Z,45.15
2022-09-17T17:30:19.279Z,45.25
2022-09-17T17:32:50.471Z,45.20
2022-09-17T17:35:17.384Z,45.35
2022-09-17T17:37:43.869Z,45.32
2022-09-17T17:40:10.786Z,45.31
2022-09-17T17:42:39.433Z,45.29
2022-09-17T17:45:07.778Z,45.22
2022-09-17T17:47:34.883Z,45.18
2022-09-17T17:50:01.617Z,45.13
2022-09-17T17:52:28.251Z,45.31
2022-09-17T17:54:55.177Z,45.34
2022-09-17T17:57:21.791Z,45.30
2022-09-17T17:59:48.345Z,45.29
2022-09-17T18:02:14.990Z,45.37
2022-09-17T18:04:41.681Z,45.38
2022-09-17T18:07:08.187Z,45.35
2022-09-17T18:09:35.511Z,45.37
2022-09-17T18:12:02.215Z,45.28
2022-09-17T18:14:28.825Z,45.35
2022-09-17T18:16:55.453Z,45.21
2022-09-17T18:19:22.010Z,45.16
2022-09-17T18:21:48.564Z,45.14
2022-09-17T18:24:15.163Z,45.18
2022-09-17T18:26:41.653Z,45.49
2022-09-17T18:29:08.510Z,45.63
2022-09-17T18:31:36.170Z,46.36
2022-09-17T18:34:07.196Z,46.78
2022-09-17T18:36:35.579Z,47.27
2022-09-17T18:41:53.245Z,47.77
2022-09-17T18:44:21.640Z,48.25
2022-09-17T18:46:50.075Z,48.50
2022-09-17T18:49:17.129Z,48.57
2022-09-17T18:51:43.907Z,48.69
2022-09-17T18:54:12.540Z,48.77
2022-09-17T18:56:41.425Z,48.86
2022-09-17T18:59:08.509Z,49.04
2022-09-17T19:01:35.726Z,49.28
2022-09-17T19:04:03.196Z,49.59
2022-09-17T19:06:31.875Z,49.81
2022-09-17T19:09:01.940Z,49.97
2022-09-17T19:11:29.060Z,50.23
2022-09-17T19:13:55.785Z,50.56
2022-09-17T19:16:22.719Z,50.38
2022-09-17T19:18:50.778Z,50.80
2022-09-17T19:21:20.611Z,51.00
2022-09-17T19:23:49.492Z,50.69
2022-09-17T19:26:22.367Z,49.07
2022-09-17T19:28:55.262Z,47.34
2022-09-17T19:31:22.467Z,45.95
2022-09-17T19:33:51.518Z,44.89
2022-09-17T19:36:19.292Z,43.93
2022-09-17T19:38:46.617Z,43.31
2022-09-17T19:41:23.044Z,42.88
2022-09-17T19:43:54.065Z,42.08
2022-09-17T19:46:24.047Z,42.34
2022-09-17T19:48:56.174Z,41.68
2022-09-17T19:51:23.696Z,41.40
2022-09-17T19:53:50.899Z,41.22
2022-09-17T19:56:21.580Z,41.28
2022-09-17T19:58:48.448Z,41.14
2022-09-17T20:01:15.439Z,41.32
2022-09-17T20:03:44.093Z,41.01
2022-09-17T20:06:22.987Z,40.87
2022-09-17T20:09:04.295Z,40.96
2022-09-17T20:11:42.627Z,40.89
2022-09-17T20:17:03.901Z,40.84
2022-09-17T20:19:30.674Z,40.81
2022-09-17T20:21:57.154Z,40.76
2022-09-17T20:24:23.856Z,40.69
2022-09-17T20:26:50.374Z,40.73
2022-09-17T20:29:17.399Z,40.46
2022-09-17T20:31:43.943Z,40.54
2022-09-17T20:34:12.472Z,40.48
2022-09-17T20:36:39.001Z,40.63
2022-09-17T20:39:13.483Z,40.32
2022-09-17T20:41:43.496Z,40.20
2022-09-17T20:44:10.075Z,40.32
2022-09-17T20:46:36.806Z,40.52
2022-09-17T20:51:30.773Z,40.59
2022-09-17T20:53:57.866Z,40.34
2022-09-17T20:56:31.697Z,40.50
2022-09-17T20:59:08.452Z,42.14
2022-09-17T21:03:10.248Z,43.68
2022-09-17T21:06:01.541Z,44.74
2022-09-17T21:10:45.001Z,43.91
2022-09-17T21:13:11.638Z,43.33
2022-09-17T21:15:38.187Z,42.88
2022-09-17T21:18:06.127Z,42.29
2022-09-17T21:20:37.661Z,42.21
2022-09-17T21:23:04.502Z,41.74
2022-09-17T21:25:31.112Z,41.61
2022-09-17T21:27:58.663Z,41.84
2022-09-17T21:30:25.593Z,41.35
2022-09-17T21:32:53.678Z,41.57
2022-09-17T21:35:20.222Z,41.42
2022-09-17T21:37:46.859Z,41.71
2022-09-17T21:40:13.442Z,42.33
2022-09-17T21:42:40.073Z,44.52
2022-09-17T21:45:06.936Z,45.97
2022-09-17T21:47:33.568Z,46.96
2022-09-17T21:50:00.064Z,46.94
2022-09-17T21:52:28.903Z,46.98
2022-09-17T21:54:55.537Z,46.98
2022-09-17T21:57:22.132Z,47.13
2022-09-17T21:59:48.605Z,46.96
2022-09-17T22:02:15.441Z,46.69
2022-09-17T22:04:41.932Z,46.79
2022-09-17T22:07:08.469Z,46.67
2022-09-17T22:09:35.280Z,46.73
2022-09-17T22:12:02.728Z,46.57
2022-09-17T22:14:29.225Z,46.38
2022-09-17T22:16:58.674Z,46.59
2022-09-17T22:19:26.126Z,46.49
2022-09-17T22:21:55.217Z,46.62
2022-09-17T22:24:23.009Z,46.44
2022-09-17T22:26:56.575Z,46.37
2022-09-17T22:29:25.469Z,46.42
2022-09-17T22:31:52.016Z,46.26
2022-09-17T22:34:20.946Z,46.27
2022-09-17T22:36:48.204Z,46.20
2022-09-17T22:39:15.328Z,46.57
2022-09-17T22:41:45.751Z,46.54
2022-09-17T22:44:16.718Z,46.59
2022-09-17T22:46:46.082Z,46.36
2022-09-17T22:49:12.844Z,46.50
2022-09-17T22:51:40.099Z,46.54
2022-09-17T22:54:07.325Z,46.45
2022-09-17T22:56:35.363Z,46.37
2022-09-17T22:59:02.033Z,46.27
2022-09-17T23:01:33.702Z,46.24
2022-09-17T23:04:01.210Z,46.54
2022-09-17T23:06:30.472Z,46.36
2022-09-17T23:08:57.658Z,46.26
2022-09-17T23:11:30.570Z,46.35
2022-09-17T23:14:01.972Z,46.15
2022-09-17T23:16:34.276Z,46.40
2022-09-17T23:19:02.274Z,46.46
2022-09-17T23:21:28.994Z,46.33
2022-09-17T23:23:55.605Z,46.46
2022-09-17T23:26:24.688Z,46.36
2022-09-17T23:28:51.731Z,46.42
2022-09-17T23:31:27.354Z,46.06
2022-09-17T23:33:56.086Z,46.37
2022-09-17T23:36:25.381Z,45.91
2022-09-17T23:38:53.268Z,46.05
2022-09-17T23:41:31.851Z,46.17
2022-09-17T23:44:01.579Z,46.15
2022-09-17T23:46:31.184Z,46.17
2022-09-17T23:48:58.292Z,46.13
2022-09-17T23:51:26.955Z,46.07
2022-09-17T23:53:54.510Z,45.97
2022-09-17T23:56:25.135Z,46.05
2022-09-17T23:58:52.855Z,46.18
